Ruby Corner, New York
Current Conditions -  °F | °C
As of 8:58 AM on Tuesday 21 Oct 2014 (Local Time) from KGTB Reporting Station
Overcast Overcast  
Wind Chill: 41°   Ceiling: 5000
Heat Index: 47°   Visibility: 10mi
Dew Point: 44°   Wind: 13mph
Humidity: 89%   Direction: 120°ESE
Pressure: 29.87"   Gusts: NA
Location:  44.435°N, 75.6656°W
Report Text: KGTB 211258Z AUTO 12011KT 10SM BKN050 OVC065 08/07 A2987 RMK AO2 SLP118 T00830066
Loading
Personal Weather Stations






























Interactive Weather Map
Tropical Storm Tracking
New forecast layout! Learn more

10-Day Weather Forecast

Advertisements
Track Severe Weather on mobile